createdAt,value
2023-06-09T00:01:32.032Z,17.35
2023-06-09T00:03:58.937Z,18.33
2023-06-09T00:06:25.611Z,17.73
2023-06-09T00:08:52.334Z,16.73
2023-06-09T00:11:19.977Z,19.75
2023-06-09T00:13:46.853Z,17.77
2023-06-09T00:16:13.377Z,20.50
2023-06-09T00:18:41.345Z,19.95
2023-06-09T00:21:07.935Z,20.60
2023-06-09T00:23:35.229Z,20.05
2023-06-09T00:26:02.023Z,20.80
2023-06-09T00:28:28.913Z,18.50
2023-06-09T00:30:55.505Z,19.92
2023-06-09T00:33:22.111Z,18.08
2023-06-09T00:35:50.320Z,17.75
2023-06-09T00:38:16.903Z,17.92
2023-06-09T00:40:43.451Z,20.35
2023-06-09T00:43:09.939Z,19.10
2023-06-09T00:45:36.422Z,21.00
2023-06-09T00:48:03.061Z,18.92
2023-06-09T00:50:31.043Z,19.77
2023-06-09T00:52:59.340Z,19.58
2023-06-09T00:55:27.375Z,19.38
2023-06-09T00:57:57.312Z,21.73
2023-06-09T01:00:28.632Z,22.85
2023-06-09T01:03:03.286Z,19.13
2023-06-09T01:05:33.806Z,20.92
2023-06-09T01:08:24.845Z,22.30
2023-06-09T01:10:54.358Z,20.17
2023-06-09T01:13:54.733Z,23.98
2023-06-09T01:16:28.739Z,17.38
2023-06-09T01:18:58.577Z,19.05
2023-06-09T01:21:50.130Z,20.83
2023-06-09T01:24:31.474Z,18.63
2023-06-09T01:27:04.098Z,17.30
2023-06-09T01:29:33.853Z,16.90
2023-06-09T01:32:03.744Z,18.75
2023-06-09T01:34:31.640Z,18.67
2023-06-09T01:36:59.229Z,18.83
2023-06-09T01:39:27.277Z,19.00
2023-06-09T01:41:54.009Z,19.02
2023-06-09T01:44:20.603Z,21.17
2023-06-09T01:46:47.192Z,18.77
2023-06-09T01:49:30.801Z,21.00
2023-06-09T01:52:25.433Z,16.27
2023-06-09T01:55:01.245Z,19.05
2023-06-09T01:57:34.059Z,17.88
2023-06-09T02:00:04.886Z,15.88
2023-06-09T02:02:34.304Z,22.80
2023-06-09T02:05:04.239Z,21.77
2023-06-09T02:07:31.965Z,18.85
2023-06-09T02:09:58.728Z,22.25
2023-06-09T02:12:31.766Z,17.98
2023-06-09T02:14:58.313Z,19.90
2023-06-09T02:17:24.907Z,18.33
2023-06-09T02:19:51.415Z,18.48
2023-06-09T02:22:17.910Z,22.85
2023-06-09T02:24:44.409Z,18.85
2023-06-09T02:27:11.031Z,21.33
2023-06-09T02:29:37.583Z,23.17
2023-06-09T02:32:04.475Z,17.90
2023-06-09T02:34:32.194Z,18.88
2023-06-09T02:37:00.432Z,16.73
2023-06-09T02:39:26.966Z,22.48
2023-06-09T02:41:53.521Z,19.52
2023-06-09T02:44:20.123Z,19.17
2023-06-09T02:46:46.692Z,19.58
2023-06-09T02:49:13.248Z,17.48
2023-06-09T02:51:39.799Z,20.80
2023-06-09T02:54:06.323Z,21.10
2023-06-09T02:56:32.854Z,17.50
2023-06-09T02:58:59.750Z,20.05
2023-06-09T03:01:28.257Z,25.77
2023-06-09T03:03:55.166Z,21.60
2023-06-09T03:06:21.720Z,22.17
2023-06-09T03:08:48.243Z,21.30
2023-06-09T03:11:14.841Z,21.13
2023-06-09T03:13:41.338Z,21.17
2023-06-09T03:16:08.431Z,19.77
2023-06-09T03:18:34.916Z,18.20
2023-06-09T03:21:05.400Z,20.10
2023-06-09T03:23:34.684Z,25.48
2023-06-09T03:26:01.172Z,20.08
2023-06-09T03:28:27.958Z,20.63
2023-06-09T03:30:56.003Z,19.80
2023-06-09T03:33:23.905Z,22.60
2023-06-09T03:35:50.793Z,20.75
2023-06-09T03:38:17.656Z,22.67
2023-06-09T03:40:44.444Z,25.50
2023-06-09T03:43:12.308Z,22.52
2023-06-09T03:45:39.180Z,20.63
2023-06-09T03:48:07.535Z,18.48
2023-06-09T03:50:34.574Z,23.05
2023-06-09T03:53:01.473Z,17.05
2023-06-09T03:55:32.384Z,18.75
2023-06-09T03:57:58.962Z,22.42
2023-06-09T04:00:25.557Z,24.30
2023-06-09T04:02:52.078Z,21.73
2023-06-09T04:05:18.676Z,19.55
2023-06-09T04:07:45.421Z,20.02
2023-06-09T04:10:12.003Z,21.73
2023-06-09T04:12:39.252Z,28.88
2023-06-09T04:15:07.839Z,22.98
2023-06-09T04:17:35.326Z,24.15
2023-06-09T04:20:05.863Z,19.05
2023-06-09T04:22:32.705Z,20.85
2023-06-09T04:24:59.192Z,20.45
2023-06-09T04:27:26.858Z,24.25
2023-06-09T04:29:53.414Z,25.17
2023-06-09T04:32:20.320Z,22.15
2023-06-09T04:34:47.833Z,22.33
2023-06-09T04:37:15.174Z,23.67
2023-06-09T04:39:46.606Z,20.60
2023-06-09T04:42:13.538Z,19.52
2023-06-09T04:44:41.416Z,20.33
2023-06-09T04:47:11.750Z,20.58
2023-06-09T04:49:38.709Z,17.20
2023-06-09T04:52:08.654Z,21.52
2023-06-09T04:54:35.374Z,23.85
2023-06-09T04:57:03.338Z,21.27
2023-06-09T04:59:29.968Z,22.02
2023-06-09T05:01:56.673Z,22.65
2023-06-09T05:04:23.214Z,20.00
2023-06-09T05:06:49.921Z,17.20
2023-06-09T05:09:16.714Z,22.55
2023-06-09T05:11:43.200Z,20.52
2023-06-09T05:14:09.754Z,25.35
2023-06-09T05:16:36.382Z,21.83
2023-06-09T05:19:03.355Z,23.83
2023-06-09T05:21:30.041Z,23.15
2023-06-09T05:23:56.805Z,23.00
2023-06-09T05:26:23.524Z,24.45
2023-06-09T05:28:50.287Z,25.30
2023-06-09T05:31:17.840Z,23.23
2023-06-09T05:33:45.187Z,23.38
2023-06-09T05:36:13.298Z,24.13
2023-06-09T05:38:39.972Z,23.50
2023-06-09T05:41:06.856Z,26.20
2023-06-09T05:43:33.558Z,24.55
2023-06-09T05:46:00.636Z,25.33
2023-06-09T05:48:27.162Z,25.17
2023-06-09T05:50:53.744Z,27.42
2023-06-09T05:53:20.331Z,22.80
2023-06-09T05:55:47.102Z,25.63
2023-06-09T05:58:15.139Z,22.67
2023-06-09T06:00:42.740Z,25.48
2023-06-09T06:03:11.667Z,23.13
2023-06-09T06:05:39.063Z,24.20
2023-06-09T06:08:07.369Z,31.25
2023-06-09T06:10:33.959Z,25.40
2023-06-09T06:13:03.260Z,24.15
2023-06-09T06:15:29.871Z,25.02
2023-06-09T06:17:56.539Z,24.77
2023-06-09T06:20:23.102Z,22.10
2023-06-09T06:22:49.981Z,23.23
2023-06-09T06:25:18.801Z,20.92
2023-06-09T06:27:48.160Z,22.83
2023-06-09T06:30:15.899Z,22.30
2023-06-09T06:32:54.098Z,24.45
2023-06-09T06:35:28.367Z,25.02
2023-06-09T06:37:55.698Z,22.95
2023-06-09T06:40:22.752Z,23.48
2023-06-09T06:42:49.338Z,21.27
2023-06-09T06:45:16.755Z,20.83
2023-06-09T06:47:44.710Z,22.17
2023-06-09T06:50:11.413Z,23.85
2023-06-09T06:52:38.139Z,23.70
2023-06-09T06:55:08.481Z,21.95
2023-06-09T06:57:36.340Z,23.85
2023-06-09T07:02:52.105Z,23.35
2023-06-09T07:05:18.958Z,24.45
2023-06-09T07:07:46.876Z,22.15
2023-06-09T07:10:14.185Z,22.92
2023-06-09T07:12:42.609Z,22.92
2023-06-09T07:15:09.718Z,21.65
2023-06-09T07:17:36.398Z,22.42
2023-06-09T07:20:03.598Z,22.15
2023-06-09T07:22:30.163Z,25.58
2023-06-09T07:24:57.273Z,27.35
2023-06-09T07:27:23.805Z,21.58
2023-06-09T07:29:50.323Z,24.63
2023-06-09T07:32:17.672Z,23.83
2023-06-09T07:34:46.414Z,24.50
2023-06-09T07:37:14.572Z,25.75
2023-06-09T07:39:41.156Z,21.38
2023-06-09T07:42:08.017Z,19.50
2023-06-09T07:44:35.216Z,23.92
2023-06-09T07:47:03.442Z,19.55
2023-06-09T07:49:29.982Z,22.13
2023-06-09T07:51:56.958Z,19.48
2023-06-09T07:54:24.230Z,18.00
2023-06-09T07:56:51.450Z,20.42
2023-06-09T07:59:18.582Z,18.58
2023-06-09T08:01:45.706Z,19.08
2023-06-09T08:04:12.568Z,22.23
2023-06-09T08:06:39.250Z,17.83
2023-06-09T08:09:05.972Z,21.30
2023-06-09T08:11:34.824Z,19.83
2023-06-09T08:14:01.439Z,17.60
2023-06-09T08:16:28.091Z,19.63
2023-06-09T08:18:54.621Z,18.50
2023-06-09T08:21:21.312Z,21.83
2023-06-09T08:23:47.996Z,18.40
2023-06-09T08:26:14.851Z,23.70
2023-06-09T08:28:41.542Z,22.13
2023-06-09T08:31:10.103Z,20.98
2023-06-09T08:33:37.379Z,19.38
2023-06-09T08:36:05.164Z,18.63
2023-06-09T08:38:36.695Z,19.60
2023-06-09T08:41:09.306Z,22.45
2023-06-09T08:43:36.386Z,24.60
2023-06-09T08:46:06.822Z,27.55
2023-06-09T08:48:35.105Z,17.30
2023-06-09T08:51:02.562Z,16.58
2023-06-09T08:53:30.549Z,17.25
2023-06-09T08:55:59.383Z,17.75
2023-06-09T08:58:27.738Z,16.45
2023-06-09T09:00:55.507Z,15.52
2023-06-09T09:03:22.155Z,16.42
2023-06-09T09:05:48.932Z,15.90
2023-06-09T09:08:15.573Z,19.52
2023-06-09T09:10:46.796Z,14.48
2023-06-09T09:13:14.363Z,16.90
2023-06-09T09:15:49.194Z,16.17
2023-06-09T09:18:17.540Z,13.02
2023-06-09T09:20:44.983Z,17.98
2023-06-09T09:23:11.545Z,12.27
2023-06-09T09:25:38.632Z,14.80
2023-06-09T09:28:13.709Z,24.27
2023-06-09T09:30:41.097Z,18.90
2023-06-09T09:33:19.941Z,21.60
2023-06-09T09:35:49.453Z,12.88
2023-06-09T09:38:19.392Z,35.65
2023-06-09T09:40:48.354Z,13.75
2023-06-09T09:43:16.046Z,15.52
2023-06-09T09:46:05.888Z,11.93
2023-06-09T09:48:34.331Z,15.43
2023-06-09T09:51:01.786Z,28.48
2023-06-09T09:53:28.755Z,22.25
2023-06-09T09:55:57.497Z,29.40
2023-06-09T09:58:33.055Z,11.30
2023-06-09T10:01:04.262Z,15.02
2023-06-09T10:03:32.298Z,14.05
2023-06-09T10:06:01.345Z,38.50
2023-06-09T10:08:32.731Z,15.55
2023-06-09T10:11:03.862Z,21.75
2023-06-09T10:13:30.947Z,16.38
2023-06-09T10:15:58.373Z,13.55
2023-06-09T10:18:25.056Z,13.15
2023-06-09T10:20:55.814Z,17.27
2023-06-09T10:23:23.972Z,13.73
2023-06-09T10:25:51.885Z,14.40
2023-06-09T10:28:19.806Z,13.07
2023-06-09T10:30:48.301Z,12.70
2023-06-09T10:33:25.245Z,14.55
2023-06-09T10:35:57.646Z,13.70
2023-06-09T10:38:31.802Z,14.32
2023-06-09T10:41:32.823Z,14.32
2023-06-09T10:44:08.585Z,12.30
2023-06-09T10:46:42.469Z,14.27
2023-06-09T10:49:25.878Z,12.40
2023-06-09T10:51:56.876Z,11.98
2023-06-09T10:54:25.076Z,10.63
2023-06-09T10:56:58.904Z,17.65
2023-06-09T10:59:25.554Z,9.70
2023-06-09T11:02:04.676Z,12.15
2023-06-09T11:04:43.341Z,14.48
2023-06-09T11:07:11.020Z,10.65
2023-06-09T11:09:37.724Z,13.18
2023-06-09T11:12:04.612Z,11.43
2023-06-09T11:14:47.111Z,11.70
2023-06-09T11:17:27.804Z,9.88
2023-06-09T11:20:12.126Z,11.68
2023-06-09T11:22:42.426Z,11.38
2023-06-09T11:25:09.868Z,14.00
2023-06-09T11:27:36.467Z,10.60
2023-06-09T11:30:09.636Z,11.05
2023-06-09T11:32:54.440Z,13.48
2023-06-09T11:35:23.807Z,11.68
2023-06-09T11:37:54.714Z,12.85
2023-06-09T11:40:22.709Z,9.95
2023-06-09T11:42:49.864Z,13.35
2023-06-09T11:45:18.957Z,13.15
2023-06-09T11:47:46.957Z,10.65
2023-06-09T11:50:14.746Z,12.48
2023-06-09T11:52:46.113Z,13.63
2023-06-09T11:55:14.602Z,8.32
2023-06-09T11:57:41.224Z,12.68
2023-06-09T12:00:14.186Z,11.95
2023-06-09T12:02:46.486Z,12.65
2023-06-09T12:05:14.378Z,10.70
2023-06-09T12:07:45.705Z,10.13
2023-06-09T12:10:18.434Z,11.85
2023-06-09T12:12:52.315Z,13.73
2023-06-09T12:15:20.717Z,14.63
2023-06-09T12:17:52.830Z,14.00
2023-06-09T12:20:38.262Z,10.60
2023-06-09T12:23:14.079Z,15.48
2023-06-09T12:25:44.199Z,9.02
2023-06-09T12:28:33.240Z,11.80
2023-06-09T12:31:14.498Z,11.70
2023-06-09T12:33:47.361Z,13.07
2023-06-09T12:36:14.040Z,10.48
2023-06-09T12:38:43.631Z,11.13
2023-06-09T12:41:14.133Z,10.95
2023-06-09T12:43:57.811Z,8.45
2023-06-09T12:46:29.746Z,11.73
2023-06-09T12:49:02.675Z,10.13
2023-06-09T12:51:34.293Z,9.52
2023-06-09T12:54:06.864Z,12.18
2023-06-09T12:56:34.734Z,15.77
2023-06-09T12:59:01.254Z,12.93
2023-06-09T13:01:37.295Z,10.18
2023-06-09T13:04:05.638Z,10.15
2023-06-09T13:06:35.856Z,10.52
2023-06-09T13:09:03.495Z,10.02
2023-06-09T13:11:37.353Z,12.18
2023-06-09T13:14:03.886Z,10.93
2023-06-09T13:16:32.469Z,13.48
2023-06-09T13:18:59.929Z,13.00
2023-06-09T13:21:43.688Z,12.30
2023-06-09T13:24:12.988Z,10.60
2023-06-09T13:26:39.827Z,10.07
2023-06-09T13:29:06.697Z,10.57
2023-06-09T13:31:33.319Z,10.57
2023-06-09T13:33:59.909Z,14.85
2023-06-09T13:36:26.733Z,9.57
2023-06-09T13:38:53.316Z,12.77
2023-06-09T13:41:19.908Z,38.15
2023-06-09T13:43:46.499Z,21.00
2023-06-09T13:46:13.136Z,9.88
2023-06-09T13:48:40.419Z,8.52
2023-06-09T13:51:07.228Z,14.75
2023-06-09T13:53:33.757Z,11.77
2023-06-09T13:56:00.249Z,12.40
2023-06-09T13:58:27.094Z,14.13
2023-06-09T14:01:01.694Z,12.27
2023-06-09T14:05:55.107Z,13.93
2023-06-09T14:08:21.807Z,11.45
2023-06-09T14:10:48.295Z,12.70
2023-06-09T14:13:14.798Z,11.75
2023-06-09T14:15:43.839Z,11.30
2023-06-09T14:18:10.411Z,14.18
2023-06-09T14:20:36.953Z,12.93
2023-06-09T14:23:10.017Z,10.57
2023-06-09T14:25:36.911Z,11.82
2023-06-09T14:28:03.628Z,13.70
2023-06-09T14:30:30.554Z,12.65
2023-06-09T14:32:57.141Z,13.45
2023-06-09T14:35:26.006Z,10.85
2023-06-09T14:37:52.577Z,11.75
2023-06-09T14:40:19.579Z,13.00
2023-06-09T14:42:49.959Z,10.05
2023-06-09T14:45:24.147Z,13.05
2023-06-09T14:47:56.251Z,14.38
2023-06-09T14:50:30.388Z,12.23
2023-06-09T14:52:57.699Z,14.23
2023-06-09T14:55:26.371Z,9.00
2023-06-09T14:57:54.588Z,11.90
2023-06-09T15:00:22.617Z,13.07
2023-06-09T15:02:51.989Z,11.15
2023-06-09T15:05:20.969Z,11.70
2023-06-09T15:07:48.090Z,13.85
2023-06-09T15:10:14.649Z,9.27
2023-06-09T15:12:41.236Z,11.05
2023-06-09T15:15:08.406Z,13.55
2023-06-09T15:17:35.052Z,10.85
2023-06-09T15:20:02.137Z,12.63
2023-06-09T15:22:28.685Z,12.02
2023-06-09T15:24:55.664Z,11.38
2023-06-09T15:27:22.343Z,16.77
2023-06-09T15:29:49.003Z,13.25
2023-06-09T15:32:16.107Z,13.48
2023-06-09T15:34:42.699Z,13.75
2023-06-09T15:37:09.226Z,10.43
2023-06-09T15:39:35.754Z,14.07
2023-06-09T15:42:02.883Z,13.82
2023-06-09T15:44:29.389Z,12.10
2023-06-09T15:46:56.141Z,10.43
2023-06-09T15:49:22.680Z,11.43
2023-06-09T15:51:49.121Z,14.32
2023-06-09T15:54:16.101Z,13.80
2023-06-09T15:56:42.617Z,11.05
2023-06-09T15:59:09.303Z,10.55
2023-06-09T16:01:35.839Z,11.52
2023-06-09T16:04:02.470Z,9.70
2023-06-09T16:06:29.031Z,12.32
2023-06-09T16:08:55.669Z,11.10
2023-06-09T16:11:22.213Z,9.13
2023-06-09T16:13:48.679Z,11.95
2023-06-09T16:16:15.449Z,10.95
2023-06-09T16:18:41.916Z,12.38
2023-06-09T16:21:08.500Z,11.43
2023-06-09T16:23:35.095Z,11.10
2023-06-09T16:26:01.708Z,9.88
2023-06-09T16:28:28.171Z,11.65
2023-06-09T16:30:54.851Z,13.25
2023-06-09T16:33:21.380Z,10.88
2023-06-09T16:35:47.963Z,10.50
2023-06-09T16:38:14.542Z,10.48
2023-06-09T16:40:41.167Z,8.93
2023-06-09T16:43:07.784Z,9.73
2023-06-09T16:45:34.328Z,10.88
2023-06-09T16:48:01.092Z,12.07
2023-06-09T16:50:27.742Z,11.40
2023-06-09T16:52:55.483Z,11.45
2023-06-09T16:55:22.389Z,12.77
2023-06-09T16:57:48.897Z,11.00
2023-06-09T17:00:16.099Z,15.88
2023-06-09T17:02:42.834Z,10.68
2023-06-09T17:05:10.339Z,9.35
2023-06-09T17:07:38.028Z,9.95
2023-06-09T17:10:05.004Z,12.93
2023-06-09T17:12:33.236Z,11.57
2023-06-09T17:15:00.525Z,9.65
2023-06-09T17:17:27.095Z,11.88
2023-06-09T17:19:53.748Z,13.93
2023-06-09T17:22:21.535Z,11.50
2023-06-09T17:24:48.187Z,11.10
2023-06-09T17:27:14.742Z,10.65
2023-06-09T17:29:41.309Z,15.65
2023-06-09T17:32:09.478Z,16.80
2023-06-09T17:34:36.066Z,14.05
2023-06-09T17:37:02.602Z,13.27
2023-06-09T17:39:31.154Z,12.68
2023-06-09T17:41:58.174Z,14.05
2023-06-09T17:44:24.661Z,11.82
2023-06-09T17:46:51.190Z,12.63
2023-06-09T17:49:17.732Z,11.68
2023-06-09T17:51:44.248Z,15.50
2023-06-09T17:54:10.748Z,12.70
2023-06-09T17:56:37.342Z,9.73
2023-06-09T17:59:03.917Z,12.13
2023-06-09T18:01:30.499Z,13.93
2023-06-09T18:03:57.038Z,11.77
2023-06-09T18:06:23.532Z,13.18
2023-06-09T18:08:50.250Z,17.05
2023-06-09T18:11:16.857Z,15.70
2023-06-09T18:13:44.563Z,17.83
2023-06-09T18:16:13.978Z,14.48
2023-06-09T18:18:40.555Z,13.32
2023-06-09T18:21:09.201Z,12.60
2023-06-09T18:23:36.134Z,11.05
2023-06-09T18:26:02.728Z,13.57
2023-06-09T18:28:29.307Z,14.45
2023-06-09T18:30:55.955Z,14.77
2023-06-09T18:33:23.622Z,17.00
2023-06-09T18:35:50.352Z,17.80
2023-06-09T18:38:16.983Z,15.93
2023-06-09T18:40:43.532Z,12.48
2023-06-09T18:43:10.053Z,17.77
2023-06-09T18:45:37.765Z,16.15
2023-06-09T18:48:04.387Z,13.73
2023-06-09T18:50:31.060Z,14.45
2023-06-09T18:52:57.673Z,14.10
2023-06-09T18:55:24.180Z,15.05
2023-06-09T18:57:50.682Z,14.75
2023-06-09T19:00:17.445Z,17.63
2023-06-09T19:02:44.895Z,20.02
2023-06-09T19:05:11.896Z,14.38
2023-06-09T19:07:38.746Z,13.77
2023-06-09T19:10:05.823Z,15.50
2023-06-09T19:12:32.336Z,13.50
2023-06-09T19:14:59.441Z,16.83
2023-06-09T19:17:27.104Z,15.48
2023-06-09T19:19:53.620Z,13.60
2023-06-09T19:22:22.259Z,14.80
2023-06-09T19:24:49.123Z,13.18
2023-06-09T19:27:15.700Z,17.60
2023-06-09T19:29:42.234Z,12.63
2023-06-09T19:32:08.839Z,13.30
2023-06-09T19:34:35.354Z,16.90
2023-06-09T19:37:03.707Z,11.38
2023-06-09T19:39:31.320Z,12.18
2023-06-09T19:41:57.799Z,15.00
2023-06-09T19:44:24.292Z,13.10
2023-06-09T19:46:51.005Z,14.98
2023-06-09T19:49:17.637Z,13.90
2023-06-09T19:51:44.531Z,12.98
2023-06-09T19:54:11.538Z,17.58
2023-06-09T19:56:47.109Z,13.82
2023-06-09T19:59:17.014Z,14.25
2023-06-09T20:01:44.954Z,14.82
2023-06-09T20:04:11.639Z,12.93
2023-06-09T20:06:39.678Z,13.80
2023-06-09T20:09:06.181Z,17.45
2023-06-09T20:11:33.394Z,12.50
2023-06-09T20:13:59.891Z,13.98
2023-06-09T20:16:26.570Z,14.18
2023-06-09T20:18:53.189Z,15.10
2023-06-09T20:21:21.740Z,15.73
2023-06-09T20:23:49.915Z,14.02
2023-06-09T20:26:19.003Z,14.27
2023-06-09T20:28:46.047Z,13.68
2023-06-09T20:31:12.936Z,15.65
2023-06-09T20:33:45.713Z,14.13
2023-06-09T20:36:12.802Z,15.40
2023-06-09T20:38:39.664Z,15.63
2023-06-09T20:41:06.574Z,13.30
2023-06-09T20:43:33.564Z,14.77
2023-06-09T20:46:01.822Z,14.15
2023-06-09T20:48:32.528Z,16.17
2023-06-09T20:50:59.046Z,14.10
2023-06-09T20:53:25.954Z,17.83
2023-06-09T20:55:52.459Z,13.18
2023-06-09T20:58:19.465Z,16.08
2023-06-09T21:00:49.864Z,13.48
2023-06-09T21:03:17.240Z,13.55
2023-06-09T21:05:44.582Z,13.30
2023-06-09T21:08:11.762Z,14.15
2023-06-09T21:10:38.371Z,15.27
2023-06-09T21:13:04.893Z,15.90
2023-06-09T21:15:31.438Z,13.13
2023-06-09T21:17:58.171Z,20.23
2023-06-09T21:20:24.996Z,14.52
2023-06-09T21:22:51.526Z,12.13
2023-06-09T21:25:18.078Z,15.23
2023-06-09T21:27:44.924Z,14.85
2023-06-09T21:30:11.804Z,13.32
2023-06-09T21:32:38.730Z,16.40
2023-06-09T21:35:07.130Z,14.07
2023-06-09T21:37:34.688Z,15.02
2023-06-09T21:40:03.271Z,15.02
2023-06-09T21:42:29.769Z,15.70
2023-06-09T21:44:56.349Z,15.13
2023-06-09T21:47:22.951Z,14.23
2023-06-09T21:49:49.540Z,14.52
2023-06-09T21:52:16.130Z,13.95
2023-06-09T21:54:42.744Z,14.32
2023-06-09T21:57:11.042Z,13.43
2023-06-09T21:59:37.838Z,15.05
2023-06-09T22:02:05.120Z,15.15
2023-06-09T22:04:31.910Z,13.20
2023-06-09T22:06:58.472Z,15.32
2023-06-09T22:09:24.969Z,12.98
2023-06-09T22:11:51.888Z,16.70
2023-06-09T22:14:18.509Z,14.52
2023-06-09T22:16:49.877Z,18.35
2023-06-09T22:19:17.945Z,15.18
2023-06-09T22:21:45.075Z,19.55
2023-06-09T22:24:12.889Z,16.23
2023-06-09T22:26:58.609Z,15.45
2023-06-09T22:29:26.585Z,16.77
2023-06-09T22:31:53.131Z,15.80
2023-06-09T22:34:19.787Z,15.98
2023-06-09T22:36:46.362Z,15.80
2023-06-09T22:39:14.335Z,21.10
2023-06-09T22:41:41.258Z,14.68
2023-06-09T22:44:08.087Z,15.73
2023-06-09T22:46:34.995Z,18.27
2023-06-09T22:49:04.184Z,16.00
2023-06-09T22:51:31.065Z,18.75
2023-06-09T22:53:59.556Z,15.55
2023-06-09T22:56:26.906Z,14.90
2023-06-09T22:58:53.632Z,15.27
2023-06-09T23:01:20.170Z,14.60
2023-06-09T23:03:46.876Z,17.60
2023-06-09T23:06:15.077Z,14.50
2023-06-09T23:08:41.701Z,15.02
2023-06-09T23:11:08.278Z,17.70
2023-06-09T23:13:34.812Z,16.65
2023-06-09T23:16:01.651Z,17.42
2023-06-09T23:18:30.545Z,22.15
2023-06-09T23:20:57.208Z,18.38
2023-06-09T23:23:26.874Z,20.98
2023-06-09T23:25:53.357Z,16.85
2023-06-09T23:28:19.868Z,16.77
2023-06-09T23:30:46.337Z,17.25
2023-06-09T23:33:13.675Z,18.33
2023-06-09T23:35:40.396Z,16.13
2023-06-09T23:38:06.904Z,19.35
2023-06-09T23:40:33.424Z,16.60
2023-06-09T23:42:59.919Z,16.33
2023-06-09T23:45:26.743Z,19.52
2023-06-09T23:47:53.469Z,17.85
2023-06-09T23:50:20.004Z,18.75
2023-06-09T23:52:46.514Z,16.42
2023-06-09T23:55:13.324Z,20.15
2023-06-09T23:57:40.014Z,20.65
